sensor_id;sensor_type;location;lat;lon;timestamp;pressure;altitude;pressure_sealevel;temperature;humidity
14089;BME280;7120;52.890;6.040;2023-03-05T00:00:36;102122.53;;;4.34;93.90
14089;BME280;7120;52.890;6.040;2023-03-05T00:03:01;102109.50;;;4.43;93.84
14089;BME280;7120;52.890;6.040;2023-03-05T00:05:26;102105.63;;;4.38;93.66
14089;BME280;7120;52.890;6.040;2023-03-05T00:07:52;102113.66;;;4.45;92.31
14089;BME280;7120;52.890;6.040;2023-03-05T00:10:17;102106.97;;;4.29;92.55
14089;BME280;7120;52.890;6.040;2023-03-05T00:12:42;102102.69;;;4.22;93.14
14089;BME280;7120;52.890;6.040;2023-03-05T00:15:08;102103.09;;;4.25;93.19
14089;BME280;7120;52.890;6.040;2023-03-05T00:17:34;102112.53;;;4.34;92.94
14089;BME280;7120;52.890;6.040;2023-03-05T00:19:59;102100.47;;;4.19;93.01
14089;BME280;7120;52.890;6.040;2023-03-05T00:22:26;102109.91;;;4.28;93.74
14089;BME280;7120;52.890;6.040;2023-03-05T00:24:51;102102.69;;;4.22;93.33
14089;BME280;7120;52.890;6.040;2023-03-05T00:27:17;102096.09;;;4.18;93.67
14089;BME280;7120;52.890;6.040;2023-03-05T00:29:42;102098.03;;;4.29;94.23
14089;BME280;7120;52.890;6.040;2023-03-05T00:32:08;102091.88;;;4.22;93.42
14089;BME280;7120;52.890;6.040;2023-03-05T00:34:33;102077.59;;;4.14;93.70
14089;BME280;7120;52.890;6.040;2023-03-05T00:37:00;102081.16;;;3.97;95.03
14089;BME280;7120;52.890;6.040;2023-03-05T00:39:26;102077.69;;;4.08;95.43
14089;BME280;7120;52.890;6.040;2023-03-05T00:41:51;102072.16;;;4.03;95.05
14089;BME280;7120;52.890;6.040;2023-03-05T00:44:17;102075.84;;;4.20;94.63
14089;BME280;7120;52.890;6.040;2023-03-05T00:46:42;102068.41;;;4.16;93.98
14089;BME280;7120;52.890;6.040;2023-03-05T00:49:08;102068.53;;;4.39;94.25
14089;BME280;7120;52.890;6.040;2023-03-05T00:51:33;102067.47;;;4.40;93.52
14089;BME280;7120;52.890;6.040;2023-03-05T00:53:59;102064.25;;;4.31;93.05
14089;BME280;7120;52.890;6.040;2023-03-05T00:56:24;102057.44;;;4.40;92.98
14089;BME280;7120;52.890;6.040;2023-03-05T00:58:49;102059.25;;;4.47;93.21
14089;BME280;7120;52.890;6.040;2023-03-05T01:01:15;102059.28;;;4.58;93.13
14089;BME280;7120;52.890;6.040;2023-03-05T01:03:40;102056.88;;;4.38;92.78
14089;BME280;7120;52.890;6.040;2023-03-05T01:06:10;102059.19;;;4.35;92.74
14089;BME280;7120;52.890;6.040;2023-03-05T01:08:36;102047.09;;;4.49;93.23
14089;BME280;7120;52.890;6.040;2023-03-05T01:11:03;102049.91;;;4.43;92.79
14089;BME280;7120;52.890;6.040;2023-03-05T01:13:29;102049.13;;;4.54;93.02
14089;BME280;7120;52.890;6.040;2023-03-05T01:15:54;102040.53;;;4.45;93.25
14089;BME280;7120;52.890;6.040;2023-03-05T01:18:20;102042.59;;;4.43;93.00
14089;BME280;7120;52.890;6.040;2023-03-05T01:20:46;102044.00;;;4.34;93.17
14089;BME280;7120;52.890;6.040;2023-03-05T01:23:11;102037.38;;;4.30;93.92
14089;BME280;7120;52.890;6.040;2023-03-05T01:25:37;102026.94;;;4.33;93.24
14089;BME280;7120;52.890;6.040;2023-03-05T01:28:02;102034.75;;;4.11;93.54
14089;BME280;7120;52.890;6.040;2023-03-05T01:30:28;102020.09;;;4.01;94.17
14089;BME280;7120;52.890;6.040;2023-03-05T01:32:54;102017.63;;;3.99;93.96
14089;BME280;7120;52.890;6.040;2023-03-05T01:35:21;102015.16;;;3.98;94.24
14089;BME280;7120;52.890;6.040;2023-03-05T01:37:47;102016.56;;;4.00;93.98
14089;BME280;7120;52.890;6.040;2023-03-05T01:40:17;102000.00;;;3.78;94.05
14089;BME280;7120;52.890;6.040;2023-03-05T01:42:57;102005.34;;;3.85;94.47
14089;BME280;7120;52.890;6.040;2023-03-05T01:45:23;101999.56;;;3.81;94.94
14089;BME280;7120;52.890;6.040;2023-03-05T01:47:48;101998.53;;;3.94;94.59
14089;BME280;7120;52.890;6.040;2023-03-05T01:50:20;101991.03;;;3.96;94.12
14089;BME280;7120;52.890;6.040;2023-03-05T01:52:50;101982.91;;;3.96;94.40
14089;BME280;7120;52.890;6.040;2023-03-05T01:55:20;101995.38;;;3.97;94.30
14089;BME280;7120;52.890;6.040;2023-03-05T01:57:52;101972.84;;;3.85;94.02
14089;BME280;7120;52.890;6.040;2023-03-05T02:00:33;101978.84;;;3.87;93.89
14089;BME280;7120;52.890;6.040;2023-03-05T02:03:04;101977.13;;;3.93;93.57
14089;BME280;7120;52.890;6.040;2023-03-05T02:05:35;101972.72;;;3.80;93.78
14089;BME280;7120;52.890;6.040;2023-03-05T02:08:04;101966.63;;;3.84;93.57
14089;BME280;7120;52.890;6.040;2023-03-05T02:10:36;101965.03;;;3.95;94.08
14089;BME280;7120;52.890;6.040;2023-03-05T02:13:06;101967.03;;;4.00;93.35
14089;BME280;7120;52.890;6.040;2023-03-05T02:15:33;101958.81;;;3.95;93.68
14089;BME280;7120;52.890;6.040;2023-03-05T02:17:59;101961.19;;;4.14;93.30
14089;BME280;7120;52.890;6.040;2023-03-05T02:20:30;101954.13;;;4.02;93.41
14089;BME280;7120;52.890;6.040;2023-03-05T02:22:56;101944.56;;;3.99;94.04
14089;BME280;7120;52.890;6.040;2023-03-05T02:25:24;101941.78;;;4.18;93.72
14089;BME280;7120;52.890;6.040;2023-03-05T02:28:05;101952.03;;;4.27;92.65
14089;BME280;7120;52.890;6.040;2023-03-05T02:30:32;101924.34;;;4.13;92.47
14089;BME280;7120;52.890;6.040;2023-03-05T02:32:57;101941.31;;;4.21;92.64
14089;BME280;7120;52.890;6.040;2023-03-05T02:35:24;101935.56;;;4.17;91.65
14089;BME280;7120;52.890;6.040;2023-03-05T02:37:49;101942.50;;;4.25;92.02
14089;BME280;7120;52.890;6.040;2023-03-05T02:40:15;101943.56;;;4.24;92.08
14089;BME280;7120;52.890;6.040;2023-03-05T02:42:40;101947.31;;;4.11;92.34
14089;BME280;7120;52.890;6.040;2023-03-05T02:45:07;101945.63;;;3.98;92.42
14089;BME280;7120;52.890;6.040;2023-03-05T02:47:33;101949.50;;;3.72;95.19
14089;BME280;7120;52.890;6.040;2023-03-05T02:49:59;101948.34;;;3.68;95.32
14089;BME280;7120;52.890;6.040;2023-03-05T02:52:24;101944.06;;;3.61;96.12
14089;BME280;7120;52.890;6.040;2023-03-05T02:54:50;101931.97;;;3.63;96.35
14089;BME280;7120;52.890;6.040;2023-03-05T02:57:16;101930.47;;;3.67;96.54
14089;BME280;7120;52.890;6.040;2023-03-05T02:59:42;101924.34;;;3.72;96.31
14089;BME280;7120;52.890;6.040;2023-03-05T03:02:07;101916.19;;;3.90;96.01
14089;BME280;7120;52.890;6.040;2023-03-05T03:04:32;101908.31;;;4.00;95.10
14089;BME280;7120;52.890;6.040;2023-03-05T03:06:58;101901.84;;;4.01;94.36
14089;BME280;7120;52.890;6.040;2023-03-05T03:09:23;101910.72;;;4.20;93.55
14089;BME280;7120;52.890;6.040;2023-03-05T03:11:50;101892.44;;;4.04;93.61
14089;BME280;7120;52.890;6.040;2023-03-05T03:14:16;101889.03;;;4.08;92.99
14089;BME280;7120;52.890;6.040;2023-03-05T03:16:41;101890.91;;;3.96;93.06
14089;BME280;7120;52.890;6.040;2023-03-05T03:19:06;101890.53;;;3.93;93.59
14089;BME280;7120;52.890;6.040;2023-03-05T03:21:32;101887.13;;;3.97;93.54
14089;BME280;7120;52.890;6.040;2023-03-05T03:23:57;101884.09;;;4.05;93.51
14089;BME280;7120;52.890;6.040;2023-03-05T03:26:22;101884.66;;;3.96;93.39
14089;BME280;7120;52.890;6.040;2023-03-05T03:28:48;101887.47;;;4.01;94.06
14089;BME280;7120;52.890;6.040;2023-03-05T03:31:13;101880.91;;;3.97;94.06
14089;BME280;7120;52.890;6.040;2023-03-05T03:33:39;101870.66;;;3.99;94.41
14089;BME280;7120;52.890;6.040;2023-03-05T03:36:05;101874.47;;;4.09;94.34
14089;BME280;7120;52.890;6.040;2023-03-05T03:38:30;101866.09;;;4.11;93.33
14089;BME280;7120;52.890;6.040;2023-03-05T03:40:56;101861.13;;;3.96;93.75
14089;BME280;7120;52.890;6.040;2023-03-05T03:43:21;101862.22;;;4.19;93.83
14089;BME280;7120;52.890;6.040;2023-03-05T03:45:47;101872.22;;;4.18;93.25
14089;BME280;7120;52.890;6.040;2023-03-05T03:48:12;101866.56;;;4.20;93.33
14089;BME280;7120;52.890;6.040;2023-03-05T03:50:41;101868.34;;;4.37;93.07
14089;BME280;7120;52.890;6.040;2023-03-05T03:53:08;101868.09;;;4.51;92.64
14089;BME280;7120;52.890;6.040;2023-03-05T03:55:33;101862.91;;;4.49;92.87
14089;BME280;7120;52.890;6.040;2023-03-05T03:57:59;101858.81;;;4.58;91.96
14089;BME280;7120;52.890;6.040;2023-03-05T04:00:25;101857.13;;;4.57;92.17
14089;BME280;7120;52.890;6.040;2023-03-05T04:02:50;101850.09;;;4.45;92.33
14089;BME280;7120;52.890;6.040;2023-03-05T04:05:16;101848.91;;;4.40;92.18
14089;BME280;7120;52.890;6.040;2023-03-05T04:07:41;101841.72;;;4.23;92.85
14089;BME280;7120;52.890;6.040;2023-03-05T04:10:07;101839.63;;;4.25;93.45
14089;BME280;7120;52.890;6.040;2023-03-05T04:12:32;101837.63;;;4.32;93.89
14089;BME280;7120;52.890;6.040;2023-03-05T04:14:58;101841.41;;;4.31;93.66
14089;BME280;7120;52.890;6.040;2023-03-05T04:17:23;101831.72;;;4.35;93.17
14089;BME280;7120;52.890;6.040;2023-03-05T04:19:48;101835.75;;;4.09;93.50
14089;BME280;7120;52.890;6.040;2023-03-05T04:22:15;101829.34;;;4.15;93.91
14089;BME280;7120;52.890;6.040;2023-03-05T04:24:41;101817.38;;;4.11;93.96
14089;BME280;7120;52.890;6.040;2023-03-05T04:27:07;101830.66;;;4.12;93.18
14089;BME280;7120;52.890;6.040;2023-03-05T04:29:33;101823.00;;;3.98;93.63
14089;BME280;7120;52.890;6.040;2023-03-05T04:31:58;101822.28;;;3.91;93.91
14089;BME280;7120;52.890;6.040;2023-03-05T04:34:24;101815.22;;;3.78;93.96
14089;BME280;7120;52.890;6.040;2023-03-05T04:36:49;101811.69;;;3.77;93.89
14089;BME280;7120;52.890;6.040;2023-03-05T04:39:15;101815.16;;;3.66;94.48
14089;BME280;7120;52.890;6.040;2023-03-05T04:41:40;101816.22;;;3.53;95.72
14089;BME280;7120;52.890;6.040;2023-03-05T04:44:06;101813.63;;;3.58;95.98
14089;BME280;7120;52.890;6.040;2023-03-05T04:46:32;101815.31;;;3.60;96.22
14089;BME280;7120;52.890;6.040;2023-03-05T04:48:57;101819.31;;;3.69;96.29
14089;BME280;7120;52.890;6.040;2023-03-05T04:51:23;101818.38;;;3.75;96.52
14089;BME280;7120;52.890;6.040;2023-03-05T04:53:49;101810.63;;;3.67;96.03
14089;BME280;7120;52.890;6.040;2023-03-05T04:56:15;101812.16;;;3.74;96.21
14089;BME280;7120;52.890;6.040;2023-03-05T04:58:40;101809.91;;;3.71;95.91
14089;BME280;7120;52.890;6.040;2023-03-05T05:01:05;101813.69;;;3.82;96.09
14089;BME280;7120;52.890;6.040;2023-03-05T05:03:31;101808.38;;;3.75;95.83
14089;BME280;7120;52.890;6.040;2023-03-05T05:05:58;101803.66;;;3.71;95.28
14089;BME280;7120;52.890;6.040;2023-03-05T05:08:24;101803.91;;;3.69;94.66
14089;BME280;7120;52.890;6.040;2023-03-05T05:11:00;101799.44;;;3.75;95.00
14089;BME280;7120;52.890;6.040;2023-03-05T05:13:27;101801.69;;;3.78;94.12
14089;BME280;7120;52.890;6.040;2023-03-05T05:15:52;101796.75;;;3.75;93.67
14089;BME280;7120;52.890;6.040;2023-03-05T05:18:18;101795.31;;;3.61;93.61
14089;BME280;7120;52.890;6.040;2023-03-05T05:20:43;101798.56;;;3.51;93.91
14089;BME280;7120;52.890;6.040;2023-03-05T05:23:09;101793.59;;;3.36;94.53
14089;BME280;7120;52.890;6.040;2023-03-05T05:25:34;101799.00;;;3.36;94.83
14089;BME280;7120;52.890;6.040;2023-03-05T05:27:59;101793.03;;;3.46;95.20
14089;BME280;7120;52.890;6.040;2023-03-05T05:30:25;101785.88;;;3.51;94.91
14089;BME280;7120;52.890;6.040;2023-03-05T05:32:50;101785.13;;;3.44;94.86
14089;BME280;7120;52.890;6.040;2023-03-05T05:35:16;101790.44;;;3.39;94.80
14089;BME280;7120;52.890;6.040;2023-03-05T05:37:41;101789.50;;;3.45;95.03
14089;BME280;7120;52.890;6.040;2023-03-05T05:40:07;101784.94;;;3.46;95.20
14089;BME280;7120;52.890;6.040;2023-03-05T05:42:33;101776.69;;;3.41;95.00
14089;BME280;7120;52.890;6.040;2023-03-05T05:44:59;101775.75;;;3.47;94.64
14089;BME280;7120;52.890;6.040;2023-03-05T05:47:27;101777.75;;;3.40;95.18
14089;BME280;7120;52.890;6.040;2023-03-05T05:49:52;101768.00;;;3.39;95.32
14089;BME280;7120;52.890;6.040;2023-03-05T05:52:18;101769.78;;;3.56;94.61
14089;BME280;7120;52.890;6.040;2023-03-05T05:54:43;101768.00;;;3.50;94.44
14089;BME280;7120;52.890;6.040;2023-03-05T05:57:08;101775.56;;;3.72;94.46
14089;BME280;7120;52.890;6.040;2023-03-05T05:59:34;101785.56;;;3.71;93.98
14089;BME280;7120;52.890;6.040;2023-03-05T06:01:59;101780.00;;;3.66;93.75
14089;BME280;7120;52.890;6.040;2023-03-05T06:04:25;101778.50;;;3.70;94.04
14089;BME280;7120;52.890;6.040;2023-03-05T06:06:50;101780.50;;;3.63;94.21
14089;BME280;7120;52.890;6.040;2023-03-05T06:09:15;101770.59;;;3.57;94.60
14089;BME280;7120;52.890;6.040;2023-03-05T06:11:41;101774.50;;;3.73;94.17
14089;BME280;7120;52.890;6.040;2023-03-05T06:14:06;101767.44;;;3.72;94.05
14089;BME280;7120;52.890;6.040;2023-03-05T06:16:33;101766.41;;;3.84;93.45
14089;BME280;7120;52.890;6.040;2023-03-05T06:18:58;101768.97;;;3.79;93.82
14089;BME280;7120;52.890;6.040;2023-03-05T06:21:24;101764.75;;;3.83;93.07
14089;BME280;7120;52.890;6.040;2023-03-05T06:23:50;101755.69;;;3.78;92.53
14089;BME280;7120;52.890;6.040;2023-03-05T06:26:18;101756.38;;;3.73;92.58
14089;BME280;7120;52.890;6.040;2023-03-05T06:28:44;101749.69;;;3.76;92.22
14089;BME280;7120;52.890;6.040;2023-03-05T06:31:16;101759.91;;;3.62;92.03
14089;BME280;7120;52.890;6.040;2023-03-05T06:33:42;101757.66;;;3.59;92.28
14089;BME280;7120;52.890;6.040;2023-03-05T06:36:13;101758.97;;;3.56;92.87
14089;BME280;7120;52.890;6.040;2023-03-05T06:38:40;101764.03;;;3.65;92.68
14089;BME280;7120;52.890;6.040;2023-03-05T06:41:09;101751.22;;;3.72;92.65
14089;BME280;7120;52.890;6.040;2023-03-05T06:43:37;101761.59;;;3.75;92.18
14089;BME280;7120;52.890;6.040;2023-03-05T06:46:06;101763.59;;;3.91;92.27
14089;BME280;7120;52.890;6.040;2023-03-05T06:48:31;101752.97;;;3.78;91.39
14089;BME280;7120;52.890;6.040;2023-03-05T06:50:57;101764.97;;;3.94;91.76
14089;BME280;7120;52.890;6.040;2023-03-05T06:53:23;101761.56;;;3.86;91.65
14089;BME280;7120;52.890;6.040;2023-03-05T06:55:49;101762.38;;;3.87;92.24
14089;BME280;7120;52.890;6.040;2023-03-05T06:58:15;101753.69;;;3.97;91.39
14089;BME280;7120;52.890;6.040;2023-03-05T07:00:40;101758.63;;;4.11;91.46
14089;BME280;7120;52.890;6.040;2023-03-05T07:03:05;101752.53;;;4.16;91.07
14089;BME280;7120;52.890;6.040;2023-03-05T07:05:32;101748.97;;;4.16;90.96
14089;BME280;7120;52.890;6.040;2023-03-05T07:07:57;101757.78;;;4.23;90.75
14089;BME280;7120;52.890;6.040;2023-03-05T07:10:23;101759.34;;;4.30;90.25
14089;BME280;7120;52.890;6.040;2023-03-05T07:12:48;101756.16;;;4.33;90.16
14089;BME280;7120;52.890;6.040;2023-03-05T07:15:13;101748.50;;;4.30;90.36
14089;BME280;7120;52.890;6.040;2023-03-05T07:17:39;101749.66;;;4.46;89.46
14089;BME280;7120;52.890;6.040;2023-03-05T07:20:04;101750.66;;;4.57;89.17
14089;BME280;7120;52.890;6.040;2023-03-05T07:22:30;101748.59;;;4.47;89.23
14089;BME280;7120;52.890;6.040;2023-03-05T07:24:55;101750.72;;;4.45;89.51
14089;BME280;7120;52.890;6.040;2023-03-05T07:27:21;101746.94;;;4.34;88.89
14089;BME280;7120;52.890;6.040;2023-03-05T07:29:49;101752.22;;;4.53;89.08
14089;BME280;7120;52.890;6.040;2023-03-05T07:32:15;101744.34;;;4.51;89.08
14089;BME280;7120;52.890;6.040;2023-03-05T07:34:40;101736.31;;;4.56;88.96
14089;BME280;7120;52.890;6.040;2023-03-05T07:37:05;101738.84;;;4.75;88.80
14089;BME280;7120;52.890;6.040;2023-03-05T07:39:31;101738.72;;;4.81;87.48
14089;BME280;7120;52.890;6.040;2023-03-05T07:41:56;101729.66;;;4.76;87.22
14089;BME280;7120;52.890;6.040;2023-03-05T07:44:21;101736.03;;;4.69;87.74
14089;BME280;7120;52.890;6.040;2023-03-05T07:46:47;101733.53;;;4.80;87.22
14089;BME280;7120;52.890;6.040;2023-03-05T07:49:12;101735.88;;;4.88;86.95
14089;BME280;7120;52.890;6.040;2023-03-05T07:51:39;101744.16;;;4.98;86.55
14089;BME280;7120;52.890;6.040;2023-03-05T07:54:04;101731.53;;;5.04;85.82
14089;BME280;7120;52.890;6.040;2023-03-05T07:56:32;101727.34;;;5.13;84.80
14089;BME280;7120;52.890;6.040;2023-03-05T07:59:01;101734.47;;;5.31;85.05
14089;BME280;7120;52.890;6.040;2023-03-05T08:01:28;101723.63;;;5.31;84.40
14089;BME280;7120;52.890;6.040;2023-03-05T08:03:53;101731.34;;;5.56;84.56
14089;BME280;7120;52.890;6.040;2023-03-05T08:06:19;101723.28;;;5.61;84.50
14089;BME280;7120;52.890;6.040;2023-03-05T08:08:44;101729.72;;;5.55;83.68
14089;BME280;7120;52.890;6.040;2023-03-05T08:11:12;101720.91;;;5.47;83.25
14089;BME280;7120;52.890;6.040;2023-03-05T08:13:39;101726.19;;;5.71;83.49
14089;BME280;7120;52.890;6.040;2023-03-05T08:16:11;101727.72;;;5.84;82.36
14089;BME280;7120;52.890;6.040;2023-03-05T08:18:36;101719.19;;;5.75;82.29
14089;BME280;7120;52.890;6.040;2023-03-05T08:21:02;101725.84;;;6.01;81.89
14089;BME280;7120;52.890;6.040;2023-03-05T08:23:28;101727.56;;;6.07;81.09
14089;BME280;7120;52.890;6.040;2023-03-05T08:25:54;101729.03;;;6.15;80.64
14089;BME280;7120;52.890;6.040;2023-03-05T08:28:20;101718.38;;;6.30;79.87
14089;BME280;7120;52.890;6.040;2023-03-05T08:30:47;101722.19;;;6.34;79.56
14089;BME280;7120;52.890;6.040;2023-03-05T08:33:13;101719.94;;;6.70;78.82
14089;BME280;7120;52.890;6.040;2023-03-05T08:35:39;101713.00;;;7.06;77.85
14089;BME280;7120;52.890;6.040;2023-03-05T08:38:04;101709.25;;;7.12;77.31
14089;BME280;7120;52.890;6.040;2023-03-05T08:40:30;101720.06;;;7.34;76.22
14089;BME280;7120;52.890;6.040;2023-03-05T08:42:56;101712.19;;;7.69;74.71
14089;BME280;7120;52.890;6.040;2023-03-05T08:45:21;101711.75;;;7.88;75.20
14089;BME280;7120;52.890;6.040;2023-03-05T08:47:48;101709.22;;;7.76;74.08
14089;BME280;7120;52.890;6.040;2023-03-05T08:50:13;101705.47;;;7.82;74.11
14089;BME280;7120;52.890;6.040;2023-03-05T08:52:39;101701.69;;;7.93;72.29
14089;BME280;7120;52.890;6.040;2023-03-05T08:55:04;101701.88;;;7.82;74.02
14089;BME280;7120;52.890;6.040;2023-03-05T08:57:30;101703.19;;;8.16;73.65
14089;BME280;7120;52.890;6.040;2023-03-05T08:59:55;101699.38;;;8.17;71.89
14089;BME280;7120;52.890;6.040;2023-03-05T09:02:21;101701.00;;;8.13;70.00
14089;BME280;7120;52.890;6.040;2023-03-05T09:04:47;101707.53;;;8.17;69.03
14089;BME280;7120;52.890;6.040;2023-03-05T09:07:12;101705.94;;;8.21;69.73
14089;BME280;7120;52.890;6.040;2023-03-05T09:09:37;101695.53;;;8.66;66.40
14089;BME280;7120;52.890;6.040;2023-03-05T09:12:03;101699.94;;;8.19;68.09
14089;BME280;7120;52.890;6.040;2023-03-05T09:14:28;101692.63;;;8.25;70.26
14089;BME280;7120;52.890;6.040;2023-03-05T09:16:55;101688.53;;;8.27;68.05
14089;BME280;7120;52.890;6.040;2023-03-05T09:19:20;101688.38;;;8.49;69.24
14089;BME280;7120;52.890;6.040;2023-03-05T09:21:46;101690.53;;;7.90;70.47
14089;BME280;7120;52.890;6.040;2023-03-05T09:24:11;101687.06;;;8.10;70.58
14089;BME280;7120;52.890;6.040;2023-03-05T09:26:37;101681.13;;;8.13;70.68
14089;BME280;7120;52.890;6.040;2023-03-05T09:29:03;101680.81;;;8.09;70.89
14089;BME280;7120;52.890;6.040;2023-03-05T09:31:30;101665.50;;;7.98;69.17
14089;BME280;7120;52.890;6.040;2023-03-05T09:33:56;101677.22;;;8.51;70.60
14089;BME280;7120;52.890;6.040;2023-03-05T09:36:24;101677.31;;;8.82;68.87
14089;BME280;7120;52.890;6.040;2023-03-05T09:38:50;101674.72;;;8.44;66.94
14089;BME280;7120;52.890;6.040;2023-03-05T09:41:45;101671.31;;;8.85;67.09
14089;BME280;7120;52.890;6.040;2023-03-05T09:47:02;101670.53;;;9.45;64.91
14089;BME280;7120;52.890;6.040;2023-03-05T09:52:44;101659.06;;;9.38;63.45
14089;BME280;7120;52.890;6.040;2023-03-05T09:55:16;101654.66;;;9.62;63.09
14089;BME280;7120;52.890;6.040;2023-03-05T09:57:48;101654.94;;;9.56;61.52
14089;BME280;7120;52.890;6.040;2023-03-05T10:00:35;101661.75;;;8.92;61.37
14089;BME280;7120;52.890;6.040;2023-03-05T10:03:13;101661.97;;;8.55;64.86
14089;BME280;7120;52.890;6.040;2023-03-05T10:08:21;101657.41;;;9.62;61.44
14089;BME280;7120;52.890;6.040;2023-03-05T10:10:51;101648.34;;;9.77;60.40
14089;BME280;7120;52.890;6.040;2023-03-05T10:13:28;101658.88;;;10.14;60.60
14089;BME280;7120;52.890;6.040;2023-03-05T10:21:23;101654.06;;;8.01;66.79
14089;BME280;7120;52.890;6.040;2023-03-05T10:24:08;101650.19;;;7.87;68.72
14089;BME280;7120;52.890;6.040;2023-03-05T10:32:05;101645.94;;;7.59;69.04
14089;BME280;7120;52.890;6.040;2023-03-05T10:37:51;101627.81;;;7.80;67.49
14089;BME280;7120;52.890;6.040;2023-03-05T10:40:39;101617.81;;;8.63;66.12
14089;BME280;7120;52.890;6.040;2023-03-05T10:43:13;101615.84;;;9.81;63.42
14089;BME280;7120;52.890;6.040;2023-03-05T10:45:44;101611.72;;;9.83;59.21
14089;BME280;7120;52.890;6.040;2023-03-05T10:48:39;101599.78;;;10.34;58.81
14089;BME280;7120;52.890;6.040;2023-03-05T10:53:56;101593.16;;;10.89;56.27
14089;BME280;7120;52.890;6.040;2023-03-05T10:56:24;101607.31;;;11.83;56.46
14089;BME280;7120;52.890;6.040;2023-03-05T10:58:51;101586.31;;;12.22;53.79
14089;BME280;7120;52.890;6.040;2023-03-05T11:03:57;101584.06;;;10.60;59.28
14089;BME280;7120;52.890;6.040;2023-03-05T11:08:55;101581.56;;;8.63;62.97
14089;BME280;7120;52.890;6.040;2023-03-05T11:11:38;101579.00;;;8.31;62.82
14089;BME280;7120;52.890;6.040;2023-03-05T11:14:03;101578.78;;;8.42;63.73
14089;BME280;7120;52.890;6.040;2023-03-05T11:16:34;101573.63;;;9.22;62.54
14089;BME280;7120;52.890;6.040;2023-03-05T11:22:16;101562.13;;;10.26;61.54
14089;BME280;7120;52.890;6.040;2023-03-05T11:24:43;101552.56;;;10.62;58.47
14089;BME280;7120;52.890;6.040;2023-03-05T11:27:26;101552.22;;;10.35;56.38
14089;BME280;7120;52.890;6.040;2023-03-05T11:29:56;101543.75;;;10.36;57.65
14089;BME280;7120;52.890;6.040;2023-03-05T11:32:26;101544.03;;;10.74;55.05
14089;BME280;7120;52.890;6.040;2023-03-05T11:34:53;101539.16;;;10.27;58.98
14089;BME280;7120;52.890;6.040;2023-03-05T11:37:25;101537.28;;;10.61;56.11
14089;BME280;7120;52.890;6.040;2023-03-05T11:42:37;101530.97;;;10.95;54.58
14089;BME280;7120;52.890;6.040;2023-03-05T11:45:05;101535.53;;;11.34;54.60
14089;BME280;7120;52.890;6.040;2023-03-05T11:52:48;101512.47;;;10.53;53.42
14089;BME280;7120;52.890;6.040;2023-03-05T11:55:16;101516.00;;;10.53;56.89
14089;BME280;7120;52.890;6.040;2023-03-05T12:00:15;101514.44;;;10.76;55.38
14089;BME280;7120;52.890;6.040;2023-03-05T12:02:41;101504.53;;;10.51;55.30
14089;BME280;7120;52.890;6.040;2023-03-05T12:05:13;101497.69;;;10.49;56.03
14089;BME280;7120;52.890;6.040;2023-03-05T12:07:43;101499.25;;;10.26;55.49
14089;BME280;7120;52.890;6.040;2023-03-05T12:10:15;101489.94;;;9.72;55.81
14089;BME280;7120;52.890;6.040;2023-03-05T12:18:20;101477.28;;;9.32;57.34
14089;BME280;7120;52.890;6.040;2023-03-05T12:24:00;101473.81;;;8.96;60.97
14089;BME280;7120;52.890;6.040;2023-03-05T12:26:55;101469.44;;;9.05;59.44
14089;BME280;7120;52.890;6.040;2023-03-05T12:34:56;101457.38;;;9.26;59.41
14089;BME280;7120;52.890;6.040;2023-03-05T12:39:48;101460.16;;;9.16;62.72
14089;BME280;7120;52.890;6.040;2023-03-05T12:47:38;101443.75;;;9.81;58.26
14089;BME280;7120;52.890;6.040;2023-03-05T12:50:07;101446.97;;;10.32;57.76
14089;BME280;7120;52.890;6.040;2023-03-05T12:52:50;101436.69;;;10.53;55.21
14089;BME280;7120;52.890;6.040;2023-03-05T12:55:26;101437.84;;;10.76;54.91
14089;BME280;7120;52.890;6.040;2023-03-05T12:58:11;101433.47;;;10.07;56.11
14089;BME280;7120;52.890;6.040;2023-03-05T13:00:42;101437.72;;;9.79;58.16
14089;BME280;7120;52.890;6.040;2023-03-05T13:03:15;101428.16;;;9.32;56.60
14089;BME280;7120;52.890;6.040;2023-03-05T13:05:51;101423.88;;;9.65;57.44
14089;BME280;7120;52.890;6.040;2023-03-05T13:08:29;101418.88;;;9.28;57.65
14089;BME280;7120;52.890;6.040;2023-03-05T13:11:31;101417.97;;;9.53;59.23
14089;BME280;7120;52.890;6.040;2023-03-05T13:13:59;101402.94;;;9.50;60.04
14089;BME280;7120;52.890;6.040;2023-03-05T13:16:35;101406.63;;;9.75;60.43
14089;BME280;7120;52.890;6.040;2023-03-05T13:19:01;101388.78;;;9.43;60.05
14089;BME280;7120;52.890;6.040;2023-03-05T13:21:31;101395.59;;;9.46;60.02
14089;BME280;7120;52.890;6.040;2023-03-05T13:23:59;101396.66;;;9.50;61.03
14089;BME280;7120;52.890;6.040;2023-03-05T13:26:35;101394.03;;;10.23;57.10
14089;BME280;7120;52.890;6.040;2023-03-05T13:29:13;101385.50;;;10.59;55.88
14089;BME280;7120;52.890;6.040;2023-03-05T13:34:23;101376.28;;;10.15;57.66
14089;BME280;7120;52.890;6.040;2023-03-05T13:37:24;101378.47;;;10.77;57.58
14089;BME280;7120;52.890;6.040;2023-03-05T13:40:29;101371.31;;;11.47;52.26
14089;BME280;7120;52.890;6.040;2023-03-05T13:43:08;101369.88;;;11.31;55.20
14089;BME280;7120;52.890;6.040;2023-03-05T13:45:33;101376.13;;;11.13;56.33
14089;BME280;7120;52.890;6.040;2023-03-05T13:48:01;101373.03;;;11.19;56.74
14089;BME280;7120;52.890;6.040;2023-03-05T13:52:54;101370.53;;;10.17;59.95
14089;BME280;7120;52.890;6.040;2023-03-05T13:55:20;101373.13;;;10.66;57.91
14089;BME280;7120;52.890;6.040;2023-03-05T13:57:49;101366.44;;;10.14;58.15
14089;BME280;7120;52.890;6.040;2023-03-05T14:02:52;101363.47;;;10.11;59.11
14089;BME280;7120;52.890;6.040;2023-03-05T14:05:19;101362.78;;;9.56;60.04
14089;BME280;7120;52.890;6.040;2023-03-05T14:07:49;101357.69;;;9.39;59.09
14089;BME280;7120;52.890;6.040;2023-03-05T14:10:36;101357.63;;;8.85;59.89
14089;BME280;7120;52.890;6.040;2023-03-05T14:13:11;101353.91;;;8.30;61.67
14089;BME280;7120;52.890;6.040;2023-03-05T14:15:38;101352.28;;;8.44;63.17
14089;BME280;7120;52.890;6.040;2023-03-05T14:18:17;101351.75;;;8.47;62.42
14089;BME280;7120;52.890;6.040;2023-03-05T14:21:02;101344.38;;;8.17;62.05
14089;BME280;7120;52.890;6.040;2023-03-05T14:28:49;101326.69;;;7.94;62.08
14089;BME280;7120;52.890;6.040;2023-03-05T14:31:16;101326.13;;;7.56;62.36
14089;BME280;7120;52.890;6.040;2023-03-05T14:33:42;101328.84;;;7.82;62.39